Eastlake, CO

11:15 AM MDT on April 18, 2015 (GMT -0600)
Shadow Ridge | | Change Station
CLOSE
Current Station
Personal Weather Station
Location: Thornton, CO
Elevation: 5335 ft
Nearby Weather Stations

Elev 5335 ft 39.94 °N, 104.94 °W | Updated 5 seconds ago

Overcast
Overcast
46.8 °F
Feels Like 45 °F
N
4.2
Wind Variable Wind from WNW
Gusts 7.4 mph

Today
High -- | Low -- °F
--% Chance of Precip.
Yesterday
High -- | Low -- °F
Precip. -- in
6:17 AM 7:41 PM
Waning Crescent, 0% visible
Pressure 29.94 in
Visibility 10.0 miles
Clouds Scattered Clouds 2000 ft
Mostly Cloudy 3000 ft
Overcast 5000 ft
Windchill 45 °F
Dew Point 37 °F
Humidity 68%
Rainfall 0.00 in
Snow Depth Not available.
UV 4.0 out of 12
Pollen 6.20 out of 12
Air Quality Not available.
Flu Activity Local Activity
METAR KEIK 181655Z AUTO 00000KT 10SM SCT020 BKN030 OVC050 07/02 A2994 RMK AO2 T00670024

More Conditions Fewer Conditions

Pressure 29.94 in
Visibility 10.0 miles
Clouds Scattered Clouds 2000 ft
Mostly Cloudy 3000 ft
Overcast 5000 ft
Windchill 45 °F
Dew Point 37 °F
Humidity 68%
Rainfall 0.00 in
Snow Depth Not available.
UV 4.0 out of 12
Pollen 6.20 out of 12
Air Quality Not available.
Flu Activity Local Activity
METAR KEIK 181655Z AUTO 00000KT 10SM SCT020 BKN030 OVC050 07/02 A2994 RMK AO2 T00670024

More Conditions Fewer Conditions

Nowcast | as of 9:11 am MDT on April 18, 2015

Isolated light rain showers will continue along the Front Range through noon. The showers will be most numerous near the foothills and south of Denver. A few heavier showers in Douglas and Elbert counties could produce a dusting of snow.

×

10-Day Weather Forecast

Almanac

Astronomy

Apr. 18, 2015 Rise Set
Actual Time
Civil Twilight
Nautical Twilight
Astronomical Twilight
Moon
Length of Visible Light
Length of Day
Tomorrow will be .
, % of the Moon is Illuminated

Today's Extremes

State Highs State Lows

Community

WunderPhotos

Upload Photos

1,814,464 photos uploaded!

WunderBlogs® & News

Nearby

Air Quality

  Air Quality AQ Index Pollutant
Not available.

Snow Depth

Station Depth Elevation

Earthquake Activity

City Distance Mag. Time & Date
Minimum magnitude displayed is 2.5.

Coastal Water Temperatures

Place Temperature

Stations

Nearby Weather Stations

Station Location Temp. Windchill Dew Point Humidity Wind Precip. Elev Updated Type